sensor_id;sensor_type;location;lat;lon;timestamp;temperature;humidity
57709;SHT35;42558;52.388;13.390;2022-10-16T00:01:42;14.20;90.94
57709;SHT35;42558;52.388;13.390;2022-10-16T00:04:09;14.19;90.86
57709;SHT35;42558;52.388;13.390;2022-10-16T00:06:36;14.24;91.04
57709;SHT35;42558;52.388;13.390;2022-10-16T00:09:03;14.26;90.93
57709;SHT35;42558;52.388;13.390;2022-10-16T00:11:34;14.24;90.79
57709;SHT35;42558;52.388;13.390;2022-10-16T00:14:10;14.25;90.76
57709;SHT35;42558;52.388;13.390;2022-10-16T00:16:40;14.26;90.77
57709;SHT35;42558;52.388;13.390;2022-10-16T00:19:08;14.31;90.87
57709;SHT35;42558;52.388;13.390;2022-10-16T00:21:38;14.46;90.83
57709;SHT35;42558;52.388;13.390;2022-10-16T00:24:06;14.46;90.54
57709;SHT35;42558;52.388;13.390;2022-10-16T00:26:35;14.51;90.43
57709;SHT35;42558;52.388;13.390;2022-10-16T00:29:04;14.54;90.40
57709;SHT35;42558;52.388;13.390;2022-10-16T00:31:34;14.53;90.19
57709;SHT35;42558;52.388;13.390;2022-10-16T00:34:01;14.55;90.19
57709;SHT35;42558;52.388;13.390;2022-10-16T00:36:27;14.58;90.21
57709;SHT35;42558;52.388;13.390;2022-10-16T00:38:55;14.63;90.20
57709;SHT35;42558;52.388;13.390;2022-10-16T00:41:30;14.63;89.93
57709;SHT35;42558;52.388;13.390;2022-10-16T00:43:59;14.59;89.70
57709;SHT35;42558;52.388;13.390;2022-10-16T00:46:39;14.60;89.82
57709;SHT35;42558;52.388;13.390;2022-10-16T00:49:15;14.70;89.78
57709;SHT35;42558;52.388;13.390;2022-10-16T00:51:45;14.73;89.59
57709;SHT35;42558;52.388;13.390;2022-10-16T00:54:28;14.68;89.37
57709;SHT35;42558;52.388;13.390;2022-10-16T00:57:00;14.65;89.47
57709;SHT35;42558;52.388;13.390;2022-10-16T00:59:35;14.62;89.47
57709;SHT35;42558;52.388;13.390;2022-10-16T01:02:06;14.57;89.44
57709;SHT35;42558;52.388;13.390;2022-10-16T01:04:38;14.56;89.65
57709;SHT35;42558;52.388;13.390;2022-10-16T01:12:50;14.51;89.71
57709;SHT35;42558;52.388;13.390;2022-10-16T01:15:59;14.49;89.83
57709;SHT35;42558;52.388;13.390;2022-10-16T01:18:46;14.48;89.86
57709;SHT35;42558;52.388;13.390;2022-10-16T01:21:32;14.44;89.86
57709;SHT35;42558;52.388;13.390;2022-10-16T01:24:09;14.45;90.10
57709;SHT35;42558;52.388;13.390;2022-10-16T01:32:28;14.33;89.93
57709;SHT35;42558;52.388;13.390;2022-10-16T01:35:23;14.28;89.95
57709;SHT35;42558;52.388;13.390;2022-10-16T01:40:49;14.18;90.12
57709;SHT35;42558;52.388;13.390;2022-10-16T01:43:57;14.15;90.16
57709;SHT35;42558;52.388;13.390;2022-10-16T01:46:28;14.15;90.37
57709;SHT35;42558;52.388;13.390;2022-10-16T01:48:59;14.13;90.39
57709;SHT35;42558;52.388;13.390;2022-10-16T01:51:29;14.10;90.44
57709;SHT35;42558;52.388;13.390;2022-10-16T01:53:57;14.11;90.55
57709;SHT35;42558;52.388;13.390;2022-10-16T01:56:27;14.07;90.57
57709;SHT35;42558;52.388;13.390;2022-10-16T01:58:57;14.15;90.96
57709;SHT35;42558;52.388;13.390;2022-10-16T02:01:33;14.28;91.16
57709;SHT35;42558;52.388;13.390;2022-10-16T02:04:09;14.33;91.08
57709;SHT35;42558;52.388;13.390;2022-10-16T02:06:44;14.34;90.91
57709;SHT35;42558;52.388;13.390;2022-10-16T02:09:11;14.36;90.81
57709;SHT35;42558;52.388;13.390;2022-10-16T02:11:38;14.36;90.70
57709;SHT35;42558;52.388;13.390;2022-10-16T02:14:05;14.39;90.70
57709;SHT35;42558;52.388;13.390;2022-10-16T02:16:34;14.39;90.57
57709;SHT35;42558;52.388;13.390;2022-10-16T02:19:09;14.39;90.54
57709;SHT35;42558;52.388;13.390;2022-10-16T02:21:41;14.40;90.53
57709;SHT35;42558;52.388;13.390;2022-10-16T02:24:33;14.43;90.59
57709;SHT35;42558;52.388;13.390;2022-10-16T02:27:43;14.48;90.39
57709;SHT35;42558;52.388;13.390;2022-10-16T02:30:20;14.51;90.33
57709;SHT35;42558;52.388;13.390;2022-10-16T02:33:04;14.52;90.14
57709;SHT35;42558;52.388;13.390;2022-10-16T02:35:36;14.50;89.97
57709;SHT35;42558;52.388;13.390;2022-10-16T02:38:04;14.43;89.82
57709;SHT35;42558;52.388;13.390;2022-10-16T02:40:33;14.42;90.01
57709;SHT35;42558;52.388;13.390;2022-10-16T02:43:03;14.42;90.11
57709;SHT35;42558;52.388;13.390;2022-10-16T02:45:31;14.40;90.05
57709;SHT35;42558;52.388;13.390;2022-10-16T02:47:58;14.38;90.06
57709;SHT35;42558;52.388;13.390;2022-10-16T02:50:24;14.38;90.10
57709;SHT35;42558;52.388;13.390;2022-10-16T02:52:51;14.35;90.05
57709;SHT35;42558;52.388;13.390;2022-10-16T02:55:18;14.32;90.14
57709;SHT35;42558;52.388;13.390;2022-10-16T02:57:45;14.30;90.14
57709;SHT35;42558;52.388;13.390;2022-10-16T03:00:13;14.25;90.09
57709;SHT35;42558;52.388;13.390;2022-10-16T03:02:43;14.22;90.05
57709;SHT35;42558;52.388;13.390;2022-10-16T03:05:10;14.19;90.07
57709;SHT35;42558;52.388;13.390;2022-10-16T03:07:37;14.15;90.00
57709;SHT35;42558;52.388;13.390;2022-10-16T03:10:04;14.08;89.93
57709;SHT35;42558;52.388;13.390;2022-10-16T03:12:31;14.04;89.98
57709;SHT35;42558;52.388;13.390;2022-10-16T03:14:58;13.99;89.92
57709;SHT35;42558;52.388;13.390;2022-10-16T03:17:25;13.99;89.98
57709;SHT35;42558;52.388;13.390;2022-10-16T03:19:52;13.96;89.96
57709;SHT35;42558;52.388;13.390;2022-10-16T03:22:19;13.94;90.08
57709;SHT35;42558;52.388;13.390;2022-10-16T03:24:46;13.95;90.27
57709;SHT35;42558;52.388;13.390;2022-10-16T03:27:12;13.99;90.47
57709;SHT35;42558;52.388;13.390;2022-10-16T03:29:39;13.97;90.52
57709;SHT35;42558;52.388;13.390;2022-10-16T03:32:06;13.95;90.58
57709;SHT35;42558;52.388;13.390;2022-10-16T03:34:32;13.92;90.72
57709;SHT35;42558;52.388;13.390;2022-10-16T03:36:59;13.88;90.72
57709;SHT35;42558;52.388;13.390;2022-10-16T03:39:25;13.82;90.65
57709;SHT35;42558;52.388;13.390;2022-10-16T03:41:53;13.78;90.73
57709;SHT35;42558;52.388;13.390;2022-10-16T03:44:20;13.78;91.03
57709;SHT35;42558;52.388;13.390;2022-10-16T03:46:46;13.72;90.89
57709;SHT35;42558;52.388;13.390;2022-10-16T03:49:13;13.68;90.89
57709;SHT35;42558;52.388;13.390;2022-10-16T03:51:40;13.67;90.90
57709;SHT35;42558;52.388;13.390;2022-10-16T03:54:06;13.64;90.81
57709;SHT35;42558;52.388;13.390;2022-10-16T03:56:33;13.61;90.82
57709;SHT35;42558;52.388;13.390;2022-10-16T03:58:59;13.64;91.08
57709;SHT35;42558;52.388;13.390;2022-10-16T04:01:26;13.63;91.12
57709;SHT35;42558;52.388;13.390;2022-10-16T04:03:53;13.62;91.18
57709;SHT35;42558;52.388;13.390;2022-10-16T04:06:20;13.60;91.17
57709;SHT35;42558;52.388;13.390;2022-10-16T04:08:46;13.55;91.04
57709;SHT35;42558;52.388;13.390;2022-10-16T04:11:13;13.53;91.03
57709;SHT35;42558;52.388;13.390;2022-10-16T04:13:40;13.57;91.30
57709;SHT35;42558;52.388;13.390;2022-10-16T04:16:07;13.57;91.31
57709;SHT35;42558;52.388;13.390;2022-10-16T04:18:34;13.60;91.41
57709;SHT35;42558;52.388;13.390;2022-10-16T04:21:05;13.62;91.47
57709;SHT35;42558;52.388;13.390;2022-10-16T04:23:33;13.66;91.62
57709;SHT35;42558;52.388;13.390;2022-10-16T04:25:59;13.61;91.50
57709;SHT35;42558;52.388;13.390;2022-10-16T04:28:27;13.62;91.52
57709;SHT35;42558;52.388;13.390;2022-10-16T04:30:54;13.60;91.45
57709;SHT35;42558;52.388;13.390;2022-10-16T04:33:21;13.58;91.44
57709;SHT35;42558;52.388;13.390;2022-10-16T04:35:48;13.57;91.40
57709;SHT35;42558;52.388;13.390;2022-10-16T04:38:22;13.54;91.34
57709;SHT35;42558;52.388;13.390;2022-10-16T04:40:49;13.57;91.50
57709;SHT35;42558;52.388;13.390;2022-10-16T04:43:16;13.55;91.49
57709;SHT35;42558;52.388;13.390;2022-10-16T04:45:42;13.55;91.53
57709;SHT35;42558;52.388;13.390;2022-10-16T04:48:09;13.52;91.50
57709;SHT35;42558;52.388;13.390;2022-10-16T04:50:36;13.50;91.57
57709;SHT35;42558;52.388;13.390;2022-10-16T04:53:03;13.48;91.72
57709;SHT35;42558;52.388;13.390;2022-10-16T04:55:29;13.44;91.66
57709;SHT35;42558;52.388;13.390;2022-10-16T04:57:56;13.37;91.56
57709;SHT35;42558;52.388;13.390;2022-10-16T05:00:23;13.36;91.60
57709;SHT35;42558;52.388;13.390;2022-10-16T05:02:50;13.35;91.60
57709;SHT35;42558;52.388;13.390;2022-10-16T05:05:17;13.31;91.57
57709;SHT35;42558;52.388;13.390;2022-10-16T05:07:47;13.28;91.56
57709;SHT35;42558;52.388;13.390;2022-10-16T05:10:15;13.27;91.54
57709;SHT35;42558;52.388;13.390;2022-10-16T05:12:43;13.23;91.47
57709;SHT35;42558;52.388;13.390;2022-10-16T05:15:10;13.21;91.41
57709;SHT35;42558;52.388;13.390;2022-10-16T05:17:37;13.23;91.49
57709;SHT35;42558;52.388;13.390;2022-10-16T05:20:10;13.24;91.50
57709;SHT35;42558;52.388;13.390;2022-10-16T05:22:38;13.19;91.42
57709;SHT35;42558;52.388;13.390;2022-10-16T05:25:05;13.19;91.44
57709;SHT35;42558;52.388;13.390;2022-10-16T05:27:32;13.24;91.75
57709;SHT35;42558;52.388;13.390;2022-10-16T05:29:59;13.33;92.02
57709;SHT35;42558;52.388;13.390;2022-10-16T05:32:25;13.37;92.05
57709;SHT35;42558;52.388;13.390;2022-10-16T05:34:52;13.33;91.98
57709;SHT35;42558;52.388;13.390;2022-10-16T05:37:19;13.37;92.19
57709;SHT35;42558;52.388;13.390;2022-10-16T05:39:45;13.37;92.19
57709;SHT35;42558;52.388;13.390;2022-10-16T05:42:12;13.36;92.08
57709;SHT35;42558;52.388;13.390;2022-10-16T05:44:42;13.32;92.00
57709;SHT35;42558;52.388;13.390;2022-10-16T05:47:09;13.33;92.05
57709;SHT35;42558;52.388;13.390;2022-10-16T05:49:38;13.32;92.00
57709;SHT35;42558;52.388;13.390;2022-10-16T05:52:06;13.38;92.13
57709;SHT35;42558;52.388;13.390;2022-10-16T05:54:33;13.50;92.37
57709;SHT35;42558;52.388;13.390;2022-10-16T05:57:00;13.58;92.40
57709;SHT35;42558;52.388;13.390;2022-10-16T05:59:28;13.63;92.44
57709;SHT35;42558;52.388;13.390;2022-10-16T06:01:55;13.65;92.43
57709;SHT35;42558;52.388;13.390;2022-10-16T06:04:21;13.68;92.46
57709;SHT35;42558;52.388;13.390;2022-10-16T06:06:48;13.69;92.39
57709;SHT35;42558;52.388;13.390;2022-10-16T06:09:14;13.68;92.30
57709;SHT35;42558;52.388;13.390;2022-10-16T06:11:41;13.69;92.30
57709;SHT35;42558;52.388;13.390;2022-10-16T06:14:08;13.77;92.37
57709;SHT35;42558;52.388;13.390;2022-10-16T06:16:35;13.81;92.29
57709;SHT35;42558;52.388;13.390;2022-10-16T06:19:04;13.89;92.27
57709;SHT35;42558;52.388;13.390;2022-10-16T06:21:33;13.94;92.14
57709;SHT35;42558;52.388;13.390;2022-10-16T06:24:00;13.99;92.09
57709;SHT35;42558;52.388;13.390;2022-10-16T06:26:27;14.03;92.00
57709;SHT35;42558;52.388;13.390;2022-10-16T06:28:57;14.06;91.92
57709;SHT35;42558;52.388;13.390;2022-10-16T06:31:26;14.11;91.77
57709;SHT35;42558;52.388;13.390;2022-10-16T06:33:57;14.14;91.69
57709;SHT35;42558;52.388;13.390;2022-10-16T06:36:25;14.17;91.62
57709;SHT35;42558;52.388;13.390;2022-10-16T06:38:52;14.18;91.56
57709;SHT35;42558;52.388;13.390;2022-10-16T06:41:20;14.20;91.43
57709;SHT35;42558;52.388;13.390;2022-10-16T06:43:49;14.20;91.38
57709;SHT35;42558;52.388;13.390;2022-10-16T06:46:19;14.25;91.30
57709;SHT35;42558;52.388;13.390;2022-10-16T06:48:49;14.31;91.30
57709;SHT35;42558;52.388;13.390;2022-10-16T06:51:17;14.35;91.23
57709;SHT35;42558;52.388;13.390;2022-10-16T06:53:48;14.37;91.15
57709;SHT35;42558;52.388;13.390;2022-10-16T06:56:33;14.41;91.16
57709;SHT35;42558;52.388;13.390;2022-10-16T06:59:00;14.47;91.14
57709;SHT35;42558;52.388;13.390;2022-10-16T07:01:28;14.52;91.11
57709;SHT35;42558;52.388;13.390;2022-10-16T07:03:56;14.64;91.04
57709;SHT35;42558;52.388;13.390;2022-10-16T07:06:23;14.85;90.86
57709;SHT35;42558;52.388;13.390;2022-10-16T07:08:52;15.58;89.24
57709;SHT35;42558;52.388;13.390;2022-10-16T07:11:20;15.96;86.55
57709;SHT35;42558;52.388;13.390;2022-10-16T07:13:50;15.69;86.41
57709;SHT35;42558;52.388;13.390;2022-10-16T07:16:22;15.48;87.04
57709;SHT35;42558;52.388;13.390;2022-10-16T07:18:56;15.47;87.38
57709;SHT35;42558;52.388;13.390;2022-10-16T07:21:30;15.53;87.48
57709;SHT35;42558;52.388;13.390;2022-10-16T07:24:04;15.90;86.52
57709;SHT35;42558;52.388;13.390;2022-10-16T07:26:37;16.56;84.14
57709;SHT35;42558;52.388;13.390;2022-10-16T07:29:12;16.39;84.22
57709;SHT35;42558;52.388;13.390;2022-10-16T07:31:42;16.97;83.81
57709;SHT35;42558;52.388;13.390;2022-10-16T07:34:10;19.57;77.04
57709;SHT35;42558;52.388;13.390;2022-10-16T07:36:39;19.75;72.79
57709;SHT35;42558;52.388;13.390;2022-10-16T07:39:07;19.53;72.55
57709;SHT35;42558;52.388;13.390;2022-10-16T07:41:34;17.79;77.82
57709;SHT35;42558;52.388;13.390;2022-10-16T07:44:03;17.18;80.54
57709;SHT35;42558;52.388;13.390;2022-10-16T07:46:31;17.29;81.02
57709;SHT35;42558;52.388;13.390;2022-10-16T07:49:00;17.23;81.20
57709;SHT35;42558;52.388;13.390;2022-10-16T07:51:26;16.87;82.17
57709;SHT35;42558;52.388;13.390;2022-10-16T07:53:53;16.76;83.32
57709;SHT35;42558;52.388;13.390;2022-10-16T07:56:20;17.46;82.02
57709;SHT35;42558;52.388;13.390;2022-10-16T07:58:48;17.24;81.11
57709;SHT35;42558;52.388;13.390;2022-10-16T08:01:16;16.85;82.76
57709;SHT35;42558;52.388;13.390;2022-10-16T08:03:45;16.68;83.71
57709;SHT35;42558;52.388;13.390;2022-10-16T08:06:18;16.57;84.29
57709;SHT35;42558;52.388;13.390;2022-10-16T08:08:53;16.55;84.56
57709;SHT35;42558;52.388;13.390;2022-10-16T08:11:21;16.56;84.41
57709;SHT35;42558;52.388;13.390;2022-10-16T08:13:49;16.62;84.63
57709;SHT35;42558;52.388;13.390;2022-10-16T08:16:16;16.61;84.39
57709;SHT35;42558;52.388;13.390;2022-10-16T08:18:43;16.73;84.58
57709;SHT35;42558;52.388;13.390;2022-10-16T08:21:14;16.83;84.14
57709;SHT35;42558;52.388;13.390;2022-10-16T08:23:47;16.82;83.86
57709;SHT35;42558;52.388;13.390;2022-10-16T08:26:22;16.89;83.89
57709;SHT35;42558;52.388;13.390;2022-10-16T08:28:49;16.94;83.60
57709;SHT35;42558;52.388;13.390;2022-10-16T08:31:18;17.05;83.29
57709;SHT35;42558;52.388;13.390;2022-10-16T08:33:45;17.14;82.56
57709;SHT35;42558;52.388;13.390;2022-10-16T08:36:13;17.42;82.24
57709;SHT35;42558;52.388;13.390;2022-10-16T08:38:43;17.55;81.27
57709;SHT35;42558;52.388;13.390;2022-10-16T08:51:01;17.62;80.33
57709;SHT35;42558;52.388;13.390;2022-10-16T08:53:31;17.62;80.28
57709;SHT35;42558;52.388;13.390;2022-10-16T08:56:19;17.59;80.36
57709;SHT35;42558;52.388;13.390;2022-10-16T08:58:47;17.51;80.40
57709;SHT35;42558;52.388;13.390;2022-10-16T09:01:20;17.51;80.64
57709;SHT35;42558;52.388;13.390;2022-10-16T09:03:54;17.51;80.27
57709;SHT35;42558;52.388;13.390;2022-10-16T09:06:54;17.52;80.50
57709;SHT35;42558;52.388;13.390;2022-10-16T09:09:35;17.56;80.52
57709;SHT35;42558;52.388;13.390;2022-10-16T09:12:35;17.71;80.45
57709;SHT35;42558;52.388;13.390;2022-10-16T09:15:31;17.85;79.01
57709;SHT35;42558;52.388;13.390;2022-10-16T09:21:24;18.17;78.18
57709;SHT35;42558;52.388;13.390;2022-10-16T09:24:12;18.10;77.90
57709;SHT35;42558;52.388;13.390;2022-10-16T09:26:50;18.03;77.91
57709;SHT35;42558;52.388;13.390;2022-10-16T09:29:18;17.97;77.51
57709;SHT35;42558;52.388;13.390;2022-10-16T09:31:49;17.95;77.98
57709;SHT35;42558;52.388;13.390;2022-10-16T09:34:27;18.11;77.75
57709;SHT35;42558;52.388;13.390;2022-10-16T09:37:01;18.25;76.89
57709;SHT35;42558;52.388;13.390;2022-10-16T09:42:18;18.47;76.28
57709;SHT35;42558;52.388;13.390;2022-10-16T09:45:00;18.50;75.91
57709;SHT35;42558;52.388;13.390;2022-10-16T09:47:29;18.65;75.95
57709;SHT35;42558;52.388;13.390;2022-10-16T09:50:04;18.55;75.54
57709;SHT35;42558;52.388;13.390;2022-10-16T09:52:48;18.39;76.00
57709;SHT35;42558;52.388;13.390;2022-10-16T09:55:16;18.37;75.43
57709;SHT35;42558;52.388;13.390;2022-10-16T09:57:51;18.48;75.30
57709;SHT35;42558;52.388;13.390;2022-10-16T10:00:19;18.63;75.88
57709;SHT35;42558;52.388;13.390;2022-10-16T10:02:48;18.66;76.17
57709;SHT35;42558;52.388;13.390;2022-10-16T10:05:26;18.81;74.81
57709;SHT35;42558;52.388;13.390;2022-10-16T10:07:59;19.30;73.64
57709;SHT35;42558;52.388;13.390;2022-10-16T10:10:33;19.35;71.74
57709;SHT35;42558;52.388;13.390;2022-10-16T10:13:22;19.76;71.92
57709;SHT35;42558;52.388;13.390;2022-10-16T10:15:52;20.14;70.31
57709;SHT35;42558;52.388;13.390;2022-10-16T10:18:21;20.21;70.13
57709;SHT35;42558;52.388;13.390;2022-10-16T10:20:59;20.21;70.06
57709;SHT35;42558;52.388;13.390;2022-10-16T10:23:30;20.16;69.29
57709;SHT35;42558;52.388;13.390;2022-10-16T10:28:53;19.36;69.27
57709;SHT35;42558;52.388;13.390;2022-10-16T10:35:56;19.29;70.92
57709;SHT35;42558;52.388;13.390;2022-10-16T10:38:51;19.40;69.81
57709;SHT35;42558;52.388;13.390;2022-10-16T10:41:48;19.28;68.90
57709;SHT35;42558;52.388;13.390;2022-10-16T10:44:33;19.38;69.75
57709;SHT35;42558;52.388;13.390;2022-10-16T10:48:04;19.47;69.52
57709;SHT35;42558;52.388;13.390;2022-10-16T10:51:04;19.32;68.43
57709;SHT35;42558;52.388;13.390;2022-10-16T10:53:44;19.54;68.85
57709;SHT35;42558;52.388;13.390;2022-10-16T10:59:42;19.87;67.12
57709;SHT35;42558;52.388;13.390;2022-10-16T11:05:50;19.60;67.47
57709;SHT35;42558;52.388;13.390;2022-10-16T11:08:34;19.61;67.14
57709;SHT35;42558;52.388;13.390;2022-10-16T11:14:03;19.48;67.68
57709;SHT35;42558;52.388;13.390;2022-10-16T11:16:51;19.54;67.04
57709;SHT35;42558;52.388;13.390;2022-10-16T11:19:37;19.89;67.07
57709;SHT35;42558;52.388;13.390;2022-10-16T11:22:44;20.09;65.79
57709;SHT35;42558;52.388;13.390;2022-10-16T11:25:24;20.19;65.05
57709;SHT35;42558;52.388;13.390;2022-10-16T11:33:31;20.22;64.47
57709;SHT35;42558;52.388;13.390;2022-10-16T11:36:23;20.17;64.79
57709;SHT35;42558;52.388;13.390;2022-10-16T11:41:53;20.35;64.40
57709;SHT35;42558;52.388;13.390;2022-10-16T11:44:38;20.55;63.96
57709;SHT35;42558;52.388;13.390;2022-10-16T11:56:15;20.59;61.17
57709;SHT35;42558;52.388;13.390;2022-10-16T12:04:14;20.24;62.25
57709;SHT35;42558;52.388;13.390;2022-10-16T12:09:34;20.12;61.86
57709;SHT35;42558;52.388;13.390;2022-10-16T12:12:28;20.25;61.06
57709;SHT35;42558;52.388;13.390;2022-10-16T12:18:24;20.16;61.82
57709;SHT35;42558;52.388;13.390;2022-10-16T12:20:55;20.07;62.51
57709;SHT35;42558;52.388;13.390;2022-10-16T12:23:38;20.00;61.96
57709;SHT35;42558;52.388;13.390;2022-10-16T12:26:25;19.91;61.88
57709;SHT35;42558;52.388;13.390;2022-10-16T12:28:57;19.91;61.90
57709;SHT35;42558;52.388;13.390;2022-10-16T12:31:56;20.01;62.43
57709;SHT35;42558;52.388;13.390;2022-10-16T12:37:14;20.19;62.33
57709;SHT35;42558;52.388;13.390;2022-10-16T12:39:49;20.25;61.61
57709;SHT35;42558;52.388;13.390;2022-10-16T12:42:30;20.34;62.54
57709;SHT35;42558;52.388;13.390;2022-10-16T12:45:00;20.34;60.55
57709;SHT35;42558;52.388;13.390;2022-10-16T12:47:58;20.41;61.28
57709;SHT35;42558;52.388;13.390;2022-10-16T12:53:17;20.52;60.15
57709;SHT35;42558;52.388;13.390;2022-10-16T13:04:22;20.45;59.82
57709;SHT35;42558;52.388;13.390;2022-10-16T13:07:33;20.37;59.00
57709;SHT35;42558;52.388;13.390;2022-10-16T13:13:38;20.16;59.66
57709;SHT35;42558;52.388;13.390;2022-10-16T13:16:35;20.15;59.72
57709;SHT35;42558;52.388;13.390;2022-10-16T13:19:50;20.17;59.96
57709;SHT35;42558;52.388;13.390;2022-10-16T13:25:39;20.37;59.55
57709;SHT35;42558;52.388;13.390;2022-10-16T13:28:38;20.27;58.34
57709;SHT35;42558;52.388;13.390;2022-10-16T13:31:10;20.22;58.15
57709;SHT35;42558;52.388;13.390;2022-10-16T13:33:47;20.21;58.46
57709;SHT35;42558;52.388;13.390;2022-10-16T13:39:36;20.32;58.45
57709;SHT35;42558;52.388;13.390;2022-10-16T13:42:16;20.22;58.58
57709;SHT35;42558;52.388;13.390;2022-10-16T13:44:55;20.26;58.09
57709;SHT35;42558;52.388;13.390;2022-10-16T13:47:27;20.40;58.06
57709;SHT35;42558;52.388;13.390;2022-10-16T13:50:00;20.53;57.69
57709;SHT35;42558;52.388;13.390;2022-10-16T13:52:38;20.70;57.36
57709;SHT35;42558;52.388;13.390;2022-10-16T13:55:12;20.83;57.07
57709;SHT35;42558;52.388;13.390;2022-10-16T13:57:41;20.87;57.21
57709;SHT35;42558;52.388;13.390;2022-10-16T14:00:25;20.75;57.58
57709;SHT35;42558;52.388;13.390;2022-10-16T14:02:58;20.51;58.31
57709;SHT35;42558;52.388;13.390;2022-10-16T14:05:48;20.46;58.16
57709;SHT35;42558;52.388;13.390;2022-10-16T14:08:19;20.44;59.25
57709;SHT35;42558;52.388;13.390;2022-10-16T14:10:48;20.52;59.24
57709;SHT35;42558;52.388;13.390;2022-10-16T14:13:20;20.75;59.20
57709;SHT35;42558;52.388;13.390;2022-10-16T14:15:58;20.81;58.30
57709;SHT35;42558;52.388;13.390;2022-10-16T14:18:32;20.55;58.19
57709;SHT35;42558;52.388;13.390;2022-10-16T14:21:04;20.39;58.99
57709;SHT35;42558;52.388;13.390;2022-10-16T14:23:37;20.21;59.31
57709;SHT35;42558;52.388;13.390;2022-10-16T14:28:36;19.96;59.45
57709;SHT35;42558;52.388;13.390;2022-10-16T14:33:45;19.75;60.89
57709;SHT35;42558;52.388;13.390;2022-10-16T14:36:13;19.60;61.58
57709;SHT35;42558;52.388;13.390;2022-10-16T14:38:48;19.58;61.12
57709;SHT35;42558;52.388;13.390;2022-10-16T14:41:23;19.58;61.41
57709;SHT35;42558;52.388;13.390;2022-10-16T14:43:54;19.51;61.55
57709;SHT35;42558;52.388;13.390;2022-10-16T14:46:32;19.47;62.02
57709;SHT35;42558;52.388;13.390;2022-10-16T14:51:38;19.32;62.20
57709;SHT35;42558;52.388;13.390;2022-10-16T14:54:08;19.28;62.12
57709;SHT35;42558;52.388;13.390;2022-10-16T14:56:50;19.27;62.23
57709;SHT35;42558;52.388;13.390;2022-10-16T14:59:32;19.22;62.13
57709;SHT35;42558;52.388;13.390;2022-10-16T15:02:09;19.23;62.16
57709;SHT35;42558;52.388;13.390;2022-10-16T15:04:45;19.15;62.14
57709;SHT35;42558;52.388;13.390;2022-10-16T15:07:13;19.14;61.87
57709;SHT35;42558;52.388;13.390;2022-10-16T15:09:40;19.04;62.47
57709;SHT35;42558;52.388;13.390;2022-10-16T15:12:14;18.95;62.49
57709;SHT35;42558;52.388;13.390;2022-10-16T15:14:43;18.93;62.89
57709;SHT35;42558;52.388;13.390;2022-10-16T15:17:10;18.78;63.26
57709;SHT35;42558;52.388;13.390;2022-10-16T15:19:37;18.74;63.60
57709;SHT35;42558;52.388;13.390;2022-10-16T15:22:04;18.61;64.03
57709;SHT35;42558;52.388;13.390;2022-10-16T15:24:31;18.46;65.10
57709;SHT35;42558;52.388;13.390;2022-10-16T15:26:58;18.34;65.07
57709;SHT35;42558;52.388;13.390;2022-10-16T15:29:25;18.30;64.93
57709;SHT35;42558;52.388;13.390;2022-10-16T15:31:51;18.26;65.31
57709;SHT35;42558;52.388;13.390;2022-10-16T15:34:18;18.19;65.63
57709;SHT35;42558;52.388;13.390;2022-10-16T15:36:46;18.05;65.95
57709;SHT35;42558;52.388;13.390;2022-10-16T15:39:13;17.95;66.89
57709;SHT35;42558;52.388;13.390;2022-10-16T15:41:44;17.84;68.39
57709;SHT35;42558;52.388;13.390;2022-10-16T15:44:17;17.69;68.87
57709;SHT35;42558;52.388;13.390;2022-10-16T15:46:45;17.53;69.45
57709;SHT35;42558;52.388;13.390;2022-10-16T15:49:13;17.39;70.29
57709;SHT35;42558;52.388;13.390;2022-10-16T15:51:41;17.28;70.83
57709;SHT35;42558;52.388;13.390;2022-10-16T15:54:08;17.14;71.28
57709;SHT35;42558;52.388;13.390;2022-10-16T15:56:35;16.98;71.88
57709;SHT35;42558;52.388;13.390;2022-10-16T15:59:03;16.90;72.58
57709;SHT35;42558;52.388;13.390;2022-10-16T16:01:32;16.82;73.04
57709;SHT35;42558;52.388;13.390;2022-10-16T16:04:01;16.69;73.24
57709;SHT35;42558;52.388;13.390;2022-10-16T16:06:40;16.50;73.93
57709;SHT35;42558;52.388;13.390;2022-10-16T16:09:11;16.39;74.48
57709;SHT35;42558;52.388;13.390;2022-10-16T16:11:40;16.33;75.01
57709;SHT35;42558;52.388;13.390;2022-10-16T16:14:11;16.27;75.04
57709;SHT35;42558;52.388;13.390;2022-10-16T16:16:40;16.23;75.48
57709;SHT35;42558;52.388;13.390;2022-10-16T16:19:09;16.16;75.67
57709;SHT35;42558;52.388;13.390;2022-10-16T16:21:37;16.07;76.09
57709;SHT35;42558;52.388;13.390;2022-10-16T16:24:05;16.01;76.17
57709;SHT35;42558;52.388;13.390;2022-10-16T16:26:35;15.93;76.30
57709;SHT35;42558;52.388;13.390;2022-10-16T16:29:05;15.82;76.56
57709;SHT35;42558;52.388;13.390;2022-10-16T16:31:33;15.75;76.87
57709;SHT35;42558;52.388;13.390;2022-10-16T16:34:00;15.70;77.04
57709;SHT35;42558;52.388;13.390;2022-10-16T16:36:28;15.64;77.12
57709;SHT35;42558;52.388;13.390;2022-10-16T16:38:56;15.55;77.33
57709;SHT35;42558;52.388;13.390;2022-10-16T16:41:24;15.50;77.55
57709;SHT35;42558;52.388;13.390;2022-10-16T16:43:54;15.45;77.64
57709;SHT35;42558;52.388;13.390;2022-10-16T16:46:22;15.40;77.63
57709;SHT35;42558;52.388;13.390;2022-10-16T16:48:48;15.31;77.73
57709;SHT35;42558;52.388;13.390;2022-10-16T16:51:17;15.24;78.02
57709;SHT35;42558;52.388;13.390;2022-10-16T16:53:47;15.19;78.14
57709;SHT35;42558;52.388;13.390;2022-10-16T16:56:19;15.12;78.31
57709;SHT35;42558;52.388;13.390;2022-10-16T16:58:50;15.09;78.64
57709;SHT35;42558;52.388;13.390;2022-10-16T17:01:20;15.04;78.36
57709;SHT35;42558;52.388;13.390;2022-10-16T17:03:50;14.97;78.68
57709;SHT35;42558;52.388;13.390;2022-10-16T17:06:21;14.93;78.94
57709;SHT35;42558;52.388;13.390;2022-10-16T17:08:51;14.90;78.84
57709;SHT35;42558;52.388;13.390;2022-10-16T17:11:20;14.78;78.80
57709;SHT35;42558;52.388;13.390;2022-10-16T17:13:50;14.70;79.36
57709;SHT35;42558;52.388;13.390;2022-10-16T17:16:33;14.69;79.65
57709;SHT35;42558;52.388;13.390;2022-10-16T17:19:02;14.69;79.64
57709;SHT35;42558;52.388;13.390;2022-10-16T17:21:33;14.67;79.41
57709;SHT35;42558;52.388;13.390;2022-10-16T17:24:01;14.63;79.32
57709;SHT35;42558;52.388;13.390;2022-10-16T17:26:29;14.59;79.26
57709;SHT35;42558;52.388;13.390;2022-10-16T17:28:58;14.53;79.32
57709;SHT35;42558;52.388;13.390;2022-10-16T17:31:29;14.47;79.44
57709;SHT35;42558;52.388;13.390;2022-10-16T17:33:59;14.43;79.65
57709;SHT35;42558;52.388;13.390;2022-10-16T17:36:29;14.39;79.71